This is the latest recevied weather packets stored in our database for station/object KC2G. If no packets are shown the sender has not sent any weather packets the latest 10 day(s).
| Time | Temp. | Humidity | Pressure | Rain* | Wind** | Luminosity | Snow |
|---|---|---|---|---|---|---|---|
| 1777498256 | 13.89° C | 67% | 1011 hPa | 0 mm | 0.89 m/s, 72° | - | - |
| 1777497354 | 14.44° C | 64% | 1010.9 hPa | 0 mm | 1.34 m/s, 77° | - | - |
| 1777496455 | 14.44° C | 63% | 1011.1 hPa | 0 mm | 0.89 m/s, 91° | - | - |
| 1777495554 | 15° C | 62% | 1011.2 hPa | 0 mm | 0.89 m/s, 144° | - | - |
| 1777494655 | 15° C | 62% | 1011.1 hPa | 0 mm | 1.34 m/s, 75° | - | - |
| 1777493754 | 15° C | 62% | 1011.2 hPa | 0 mm | 0.89 m/s, 172° | - | - |
| 1777492856 | 15.56° C | 61% | 1011.4 hPa | 0 mm | 1.34 m/s, 59° | - | - |
| 1777491954 | 15.56° C | 61% | 1011.7 hPa | 0 mm | 0.89 m/s, 73° | - | - |
| 1777491055 | 16.11° C | 59% | 1011.7 hPa | 0 mm | 0.89 m/s, 83° | - | - |
| 1777490219 | 16.67° C | 57% | 1011.7 hPa | 0 mm | 1.79 m/s, 86° | - | - |
| 1777490155 | 16.67° C | 57% | 1011.7 hPa | 0 mm | 1.79 m/s, 86° | - | - |
| 1777489327 | 16.67° C | 56% | 1012 hPa | 0 mm | 0.89 m/s, 173° | - | - |
| 1777489255 | 16.67° C | 56% | 1012 hPa | 0 mm | 0.89 m/s, 173° | - | - |
| 1777488355 | 17.22° C | 55% | 1012 hPa | 0 mm | 1.34 m/s, 133° | - | - |
| 1777487455 | 17.22° C | 54% | 1012 hPa | 0 mm | 0.89 m/s, 110° | - | - |
| 1777486555 | 17.78° C | 52% | 1012.1 hPa | 0 mm | 0.89 m/s, 131° | - | - |
| 1777485655 | 17.22° C | 53% | 1012.1 hPa | 0 mm | 1.34 m/s, 72° | - | - |
| 1777484755 | 17.22° C | 53% | 1012.6 hPa | 0 mm | 0.89 m/s, 95° | - | - |
| 1777483855 | 16.67° C | 54% | 1012.9 hPa | 0 mm | 0.89 m/s, 140° | - | - |
| 1777482955 | 16.67° C | 53% | 1012.9 hPa | 0 mm | 1.34 m/s, 141° | - | - |
| 1777482054 | 16.67° C | 53% | 1012.9 hPa | 0 mm | 1.34 m/s, 85° | - | - |
| 1777481155 | 16.67° C | 52% | 1013.2 hPa | 0 mm | 0.45 m/s, 125° | - | - |
| 1777480256 | 16.67° C | 52% | 1013.3 hPa | 0 mm | 0.89 m/s, 89° | - | - |
| 1777479354 | 16.67° C | 52% | 1013.5 hPa | 0 mm | 0.45 m/s, 162° | - | - |
| 1777478455 | 16.67° C | 51% | 1013.6 hPa | 0 mm | 0.89 m/s, 112° | - | - |
* Rain latest hour (hover to see other rain measurements)
** Current wind speed in m/s (hover to see current wind gust speed)